createdAt,value
2019-02-07T00:00:10.760Z,-1.70
2019-02-07T00:02:37.265Z,-1.70
2019-02-07T00:05:04.948Z,-1.80
2019-02-07T00:07:31.350Z,-1.80
2019-02-07T00:09:57.636Z,-1.90
2019-02-07T00:12:24.002Z,-1.90
2019-02-07T00:14:50.431Z,-1.90
2019-02-07T00:17:16.774Z,-1.90
2019-02-07T00:19:43.344Z,-1.90
2019-02-07T00:22:09.802Z,-1.90
2019-02-07T00:24:42.913Z,-2.00
2019-02-07T00:27:04.558Z,-1.90
2019-02-07T00:29:31.220Z,-1.90
2019-02-07T00:31:57.625Z,-2.00
2019-02-07T00:34:26.094Z,-2.00
2019-02-07T00:36:53.163Z,-2.00
2019-02-07T00:39:19.885Z,-2.00
2019-02-07T00:41:46.327Z,-2.10
2019-02-07T00:44:12.916Z,-2.10
2019-02-07T00:46:39.210Z,-2.20
2019-02-07T00:49:05.788Z,-2.20
2019-02-07T00:51:32.266Z,-2.20
2019-02-07T00:53:58.661Z,-2.20
2019-02-07T00:56:24.916Z,-2.20
2019-02-07T00:58:51.705Z,-2.20
2019-02-07T01:01:18.164Z,-2.30
2019-02-07T01:03:44.674Z,-2.30
2019-02-07T01:06:11.271Z,-2.30
2019-02-07T01:08:37.739Z,-2.30
2019-02-07T01:11:04.366Z,-2.30
2019-02-07T01:13:30.762Z,-2.40
2019-02-07T01:15:57.562Z,-2.40
2019-02-07T01:18:24.010Z,-2.40
2019-02-07T01:20:50.513Z,-2.40
2019-02-07T01:23:17.351Z,-2.40
2019-02-07T01:25:43.853Z,-2.40
2019-02-07T01:28:10.408Z,-2.30
2019-02-07T01:30:36.875Z,-2.30
2019-02-07T01:33:03.531Z,-2.30
2019-02-07T01:35:30.056Z,-2.30
2019-02-07T01:37:56.582Z,-2.40
2019-02-07T01:40:23.142Z,-2.40
2019-02-07T01:42:49.763Z,-2.50
2019-02-07T01:45:19.146Z,-2.50
2019-02-07T01:47:45.750Z,-2.60
2019-02-07T01:50:14.523Z,-2.70
2019-02-07T01:52:41.122Z,-2.70
2019-02-07T01:55:07.848Z,-2.70
2019-02-07T01:57:34.271Z,-2.80
2019-02-07T02:00:00.766Z,-2.80
2019-02-07T02:02:27.130Z,-2.80
2019-02-07T02:04:53.729Z,-2.80
2019-02-07T02:07:20.207Z,-2.90
2019-02-07T02:09:46.834Z,-2.90
2019-02-07T02:12:13.295Z,-2.90
2019-02-07T02:14:40.020Z,-2.90
2019-02-07T02:17:06.608Z,-2.90
2019-02-07T02:19:33.030Z,-2.90
2019-02-07T02:21:59.687Z,-2.90
2019-02-07T02:24:26.233Z,-2.90
2019-02-07T02:26:52.756Z,-2.80
2019-02-07T02:29:19.345Z,-2.90
2019-02-07T02:31:45.868Z,-2.90
2019-02-07T02:34:12.527Z,-3.00
2019-02-07T02:36:39.018Z,-3.10
2019-02-07T02:39:06.613Z,-3.10
2019-02-07T02:41:33.102Z,-3.10
2019-02-07T02:43:59.514Z,-3.10
2019-02-07T02:46:25.988Z,-3.10
2019-02-07T02:48:52.479Z,-3.20
2019-02-07T02:51:19.022Z,-3.20
2019-02-07T02:53:45.325Z,-3.20
2019-02-07T02:56:11.714Z,-3.20
2019-02-07T02:58:38.262Z,-3.20
2019-02-07T03:01:24.439Z,-3.30
2019-02-07T03:03:52.863Z,-3.20
2019-02-07T03:09:14.914Z,-3.20
2019-02-07T03:11:46.607Z,-3.10
2019-02-07T03:14:33.112Z,-3.20
2019-02-07T03:17:13.388Z,-3.30
2019-02-07T03:19:53.845Z,-3.40
2019-02-07T03:22:27.962Z,-3.30
2019-02-07T03:24:56.247Z,-3.30
2019-02-07T03:27:33.324Z,-3.30
2019-02-07T03:33:18.151Z,-3.30
2019-02-07T03:36:04.496Z,-3.30
2019-02-07T03:38:39.059Z,-3.30
2019-02-07T03:41:27.221Z,-3.40
2019-02-07T03:44:01.898Z,-3.50
2019-02-07T03:46:30.586Z,-3.50
2019-02-07T03:49:01.516Z,-3.50
2019-02-07T03:51:48.525Z,-3.50
2019-02-07T03:54:22.803Z,-3.50
2019-02-07T03:57:08.005Z,-3.50
2019-02-07T03:59:42.393Z,-3.50
2019-02-07T04:02:10.967Z,-3.50
2019-02-07T04:05:09.488Z,-3.60
2019-02-07T04:07:47.811Z,-3.60
2019-02-07T04:10:16.221Z,-3.60
2019-02-07T04:12:56.687Z,-3.70
2019-02-07T04:15:42.910Z,-3.70
2019-02-07T04:18:16.860Z,-3.60
2019-02-07T04:20:51.057Z,-3.70
2019-02-07T04:23:34.525Z,-3.60
2019-02-07T04:26:19.640Z,-3.60
2019-02-07T04:28:57.052Z,-3.60
2019-02-07T04:31:28.028Z,-3.60
2019-02-07T04:34:11.585Z,-3.60
2019-02-07T04:36:39.909Z,-3.60
2019-02-07T04:39:08.690Z,-3.60
2019-02-07T04:41:42.953Z,-3.60
2019-02-07T04:44:14.180Z,-3.60
2019-02-07T04:47:00.369Z,-3.60
2019-02-07T04:49:40.408Z,-3.60
2019-02-07T04:52:14.724Z,-3.60
2019-02-07T04:54:45.653Z,-3.60
2019-02-07T04:57:28.945Z,-3.60
2019-02-07T05:00:00.483Z,-3.60
2019-02-07T05:02:28.710Z,-3.60
2019-02-07T05:04:56.976Z,-3.60
2019-02-07T05:07:27.891Z,-3.60
2019-02-07T05:10:02.239Z,-3.60
2019-02-07T05:12:45.269Z,-3.60
2019-02-07T05:15:13.717Z,-3.60
2019-02-07T05:17:41.961Z,-3.60
2019-02-07T05:20:27.249Z,-3.60
2019-02-07T05:23:12.520Z,-3.60
2019-02-07T05:25:55.563Z,-3.50
2019-02-07T05:28:40.251Z,-3.50
2019-02-07T05:31:08.684Z,-3.50
2019-02-07T05:33:51.688Z,-3.50
2019-02-07T05:36:20.046Z,-3.50
2019-02-07T05:38:48.749Z,-3.50
2019-02-07T05:41:20.317Z,-3.50
2019-02-07T05:44:05.772Z,-3.50
2019-02-07T05:46:51.238Z,-3.50
2019-02-07T05:53:10.349Z,-3.50
2019-02-07T05:55:52.898Z,-3.50
2019-02-07T05:58:38.107Z,-3.50
2019-02-07T06:01:06.573Z,-3.50
2019-02-07T06:03:34.827Z,-3.60
2019-02-07T06:06:12.415Z,-3.50
2019-02-07T06:08:40.813Z,-3.50
2019-02-07T06:11:25.539Z,-3.50
2019-02-07T06:13:56.869Z,-3.50
2019-02-07T06:16:30.817Z,-3.50
2019-02-07T06:19:15.808Z,-3.50
2019-02-07T06:21:50.122Z,-3.40
2019-02-07T06:24:33.338Z,-3.40
2019-02-07T06:27:19.833Z,-3.40
2019-02-07T06:30:03.585Z,-3.40
2019-02-07T06:32:31.985Z,-3.40
2019-02-07T06:35:15.518Z,-3.30
2019-02-07T06:37:52.591Z,-3.30
2019-02-07T06:40:20.853Z,-3.30
2019-02-07T06:42:55.203Z,-3.30
2019-02-07T06:45:26.236Z,-3.30
2019-02-07T06:48:11.304Z,-3.30
2019-02-07T06:50:56.122Z,-3.30
2019-02-07T06:53:24.353Z,-3.30
2019-02-07T06:56:04.614Z,-3.20
2019-02-07T06:58:38.933Z,-3.20
2019-02-07T07:01:22.415Z,-3.20
2019-02-07T07:04:02.703Z,-3.20
2019-02-07T07:06:34.022Z,-3.00
2019-02-07T07:09:08.080Z,-2.90
2019-02-07T07:11:52.739Z,-2.70
2019-02-07T07:14:33.323Z,-2.60
2019-02-07T07:17:25.388Z,-2.40
2019-02-07T07:20:05.096Z,-2.30
2019-02-07T07:22:36.079Z,-2.30
2019-02-07T07:25:05.830Z,-2.20
2019-02-07T07:27:49.098Z,-2.10
2019-02-07T07:30:35.893Z,-2.10
2019-02-07T07:33:07.056Z,-2.00
2019-02-07T07:35:52.181Z,-1.90
2019-02-07T07:38:20.847Z,-1.90
2019-02-07T07:40:54.937Z,-1.90
2019-02-07T07:43:23.261Z,-1.90
2019-02-07T07:45:57.569Z,-1.80
2019-02-07T07:48:31.955Z,-1.70
2019-02-07T07:51:00.415Z,-1.70
2019-02-07T07:53:28.817Z,-1.60
2019-02-07T07:56:05.978Z,-1.60
2019-02-07T07:58:34.389Z,-1.50
2019-02-07T08:01:02.751Z,-1.50
2019-02-07T08:03:39.872Z,-1.50
2019-02-07T08:06:20.178Z,-1.40
2019-02-07T08:08:54.443Z,-1.40
2019-02-07T08:11:31.487Z,-1.30
2019-02-07T08:14:08.470Z,-1.20
2019-02-07T08:16:45.430Z,-1.10
2019-02-07T08:19:17.648Z,-1.10
2019-02-07T08:21:46.009Z,-1.00
2019-02-07T08:24:14.594Z,-1.00
2019-02-07T08:26:48.712Z,-1.00
2019-02-07T08:29:33.745Z,-1.00
2019-02-07T08:32:04.913Z,-0.90
2019-02-07T08:34:36.155Z,-0.90
2019-02-07T08:37:04.545Z,-0.80
2019-02-07T08:39:41.763Z,-0.80
2019-02-07T08:42:09.989Z,-0.70
2019-02-07T08:44:38.360Z,-0.60
2019-02-07T08:47:21.569Z,-0.60
2019-02-07T08:49:49.998Z,-0.50
2019-02-07T08:52:34.963Z,-0.50
2019-02-07T08:55:21.879Z,-0.50
2019-02-07T08:57:52.688Z,-0.50
2019-02-07T09:00:29.919Z,-0.50
2019-02-07T09:02:58.324Z,-0.60
2019-02-07T09:05:42.930Z,-0.70
2019-02-07T09:08:27.970Z,-0.70
2019-02-07T09:11:05.120Z,-0.70
2019-02-07T09:13:33.856Z,-0.70
2019-02-07T09:16:07.781Z,-0.70
2019-02-07T09:18:54.030Z,-0.60
2019-02-07T09:21:22.315Z,-0.60
2019-02-07T09:23:50.993Z,-0.50
2019-02-07T09:26:34.271Z,-0.50
2019-02-07T09:29:11.217Z,-0.50
2019-02-07T09:31:48.974Z,-0.40
2019-02-07T09:34:17.233Z,-0.40
2019-02-07T09:36:45.625Z,-0.40
2019-02-07T09:39:30.616Z,-0.30
2019-02-07T09:42:15.454Z,-0.20
2019-02-07T09:44:52.532Z,-0.20
2019-02-07T09:47:37.398Z,-0.10
2019-02-07T09:50:09.020Z,-0.10
2019-02-07T09:52:40.360Z,0.00
2019-02-07T09:55:29.111Z,0.10
2019-02-07T09:58:09.195Z,0.20
2019-02-07T10:00:55.887Z,0.20
2019-02-07T10:03:33.098Z,0.30
2019-02-07T10:06:19.434Z,0.20
2019-02-07T10:09:04.507Z,0.20
2019-02-07T10:11:38.583Z,0.20
2019-02-07T10:14:07.090Z,0.20
2019-02-07T10:16:38.163Z,0.30
2019-02-07T10:19:06.592Z,0.30
2019-02-07T10:21:51.581Z,0.40
2019-02-07T10:24:19.896Z,0.40
2019-02-07T10:26:48.277Z,0.50
2019-02-07T10:29:16.607Z,0.50
2019-02-07T10:32:01.314Z,0.50
2019-02-07T10:34:44.723Z,0.50
2019-02-07T10:37:13.087Z,0.50
2019-02-07T10:39:59.790Z,0.60
2019-02-07T10:42:30.651Z,0.60
2019-02-07T10:45:01.699Z,0.60
2019-02-07T10:47:32.979Z,0.60
2019-02-07T10:50:13.322Z,0.60
2019-02-07T10:52:41.734Z,0.60
2019-02-07T10:55:18.779Z,0.60
2019-02-07T10:58:03.485Z,0.60
2019-02-07T11:00:31.904Z,0.70
2019-02-07T11:03:18.364Z,0.60
2019-02-07T11:05:49.348Z,0.70
2019-02-07T11:08:23.579Z,0.80
2019-02-07T11:10:57.552Z,0.90
2019-02-07T11:13:40.804Z,1.10
2019-02-07T11:16:25.896Z,1.30
2019-02-07T11:18:55.778Z,1.50
2019-02-07T11:21:24.164Z,1.50
2019-02-07T11:23:52.556Z,1.60
2019-02-07T11:26:20.952Z,1.60
2019-02-07T11:28:52.113Z,1.70
2019-02-07T11:31:20.486Z,1.80
2019-02-07T11:33:48.705Z,1.70
2019-02-07T11:36:17.025Z,1.60
2019-02-07T11:38:45.401Z,1.50
2019-02-07T11:41:13.872Z,1.50
2019-02-07T11:43:42.176Z,1.50
2019-02-07T11:46:16.727Z,1.50
2019-02-07T11:48:47.736Z,1.50
2019-02-07T11:51:18.672Z,1.50
2019-02-07T11:54:01.898Z,1.60
2019-02-07T11:56:39.254Z,1.60
2019-02-07T11:59:22.639Z,1.80
2019-02-07T12:02:09.411Z,1.90
2019-02-07T12:04:37.836Z,2.00
2019-02-07T12:07:22.521Z,2.20
2019-02-07T12:10:02.925Z,2.20
2019-02-07T12:12:40.611Z,2.30
2019-02-07T12:15:27.594Z,2.40
2019-02-07T12:18:01.990Z,2.40
2019-02-07T12:20:30.602Z,2.50
2019-02-07T12:23:15.394Z,2.50
2019-02-07T12:25:55.768Z,2.50
2019-02-07T12:28:26.207Z,2.60
2019-02-07T12:30:58.715Z,2.60
2019-02-07T12:33:41.841Z,2.70
2019-02-07T12:36:10.234Z,2.70
2019-02-07T12:38:38.723Z,2.80
2019-02-07T12:41:07.328Z,2.90
2019-02-07T12:43:41.480Z,2.90
2019-02-07T12:46:12.426Z,2.90
2019-02-07T12:48:43.547Z,3.00
2019-02-07T12:51:17.583Z,3.00
2019-02-07T12:53:54.902Z,3.10
2019-02-07T12:56:38.162Z,3.10
2019-02-07T12:59:15.778Z,3.20
2019-02-07T13:02:00.573Z,3.30
2019-02-07T13:04:28.827Z,3.30
2019-02-07T13:07:00.014Z,3.40
2019-02-07T13:09:45.287Z,3.40
2019-02-07T13:12:30.268Z,3.40
2019-02-07T13:15:04.595Z,3.50
2019-02-07T13:17:32.936Z,3.50
2019-02-07T13:20:03.832Z,3.60
2019-02-07T13:22:38.152Z,3.60
2019-02-07T13:25:17.545Z,3.70
2019-02-07T13:27:45.912Z,3.70
2019-02-07T13:30:26.382Z,3.80
2019-02-07T13:32:54.665Z,3.80
2019-02-07T13:35:34.892Z,3.80
2019-02-07T13:38:21.441Z,3.90
2019-02-07T13:40:49.968Z,4.00
2019-02-07T13:43:18.287Z,4.10
2019-02-07T13:45:49.543Z,4.10
2019-02-07T13:48:17.991Z,4.10
2019-02-07T13:50:58.349Z,4.20
2019-02-07T13:53:29.242Z,4.10
2019-02-07T13:56:00.235Z,4.20
2019-02-07T13:58:31.247Z,4.10
2019-02-07T14:01:14.708Z,4.10
2019-02-07T14:03:43.393Z,4.20
2019-02-07T14:06:14.551Z,4.20
2019-02-07T14:08:48.496Z,4.20
2019-02-07T14:11:25.756Z,4.30
2019-02-07T14:14:12.264Z,4.30
2019-02-07T14:16:46.428Z,4.40
2019-02-07T14:19:17.327Z,4.40
2019-02-07T14:21:45.633Z,4.50
2019-02-07T14:24:13.934Z,4.60
2019-02-07T14:26:54.568Z,4.70
2019-02-07T14:29:39.286Z,4.80
2019-02-07T14:32:26.222Z,4.80
2019-02-07T14:35:11.099Z,4.90
2019-02-07T14:37:57.280Z,5.00
2019-02-07T14:40:25.967Z,4.90
2019-02-07T14:43:00.035Z,5.00
2019-02-07T14:45:46.328Z,5.00
2019-02-07T14:48:22.619Z,4.90
2019-02-07T14:50:49.223Z,4.90
2019-02-07T14:53:15.702Z,4.90
2019-02-07T14:55:42.136Z,4.80
2019-02-07T14:58:08.503Z,4.80
2019-02-07T15:00:35.216Z,4.70
2019-02-07T15:03:01.572Z,4.80
2019-02-07T15:05:28.050Z,4.80
2019-02-07T15:07:54.365Z,4.70
2019-02-07T15:10:21.021Z,4.70
2019-02-07T15:12:47.902Z,4.70
2019-02-07T15:15:17.493Z,4.70
2019-02-07T15:17:43.769Z,4.60
2019-02-07T15:20:11.327Z,4.60
2019-02-07T15:22:37.739Z,4.60
2019-02-07T15:25:06.350Z,4.60
2019-02-07T15:27:33.056Z,4.60
2019-02-07T15:29:59.483Z,4.60
2019-02-07T15:32:25.849Z,4.60
2019-02-07T15:34:53.885Z,4.50
2019-02-07T15:37:20.542Z,4.50
2019-02-07T15:39:49.831Z,4.50
2019-02-07T15:42:16.320Z,4.50
2019-02-07T15:44:42.948Z,4.50
2019-02-07T15:47:09.816Z,4.50
2019-02-07T15:49:36.328Z,4.50
2019-02-07T15:52:02.928Z,4.50
2019-02-07T15:54:29.797Z,4.50
2019-02-07T15:56:56.347Z,4.50
2019-02-07T15:59:24.759Z,4.40
2019-02-07T16:01:53.167Z,4.40
2019-02-07T16:04:21.767Z,4.40
2019-02-07T16:06:48.133Z,4.30
2019-02-07T16:09:15.302Z,4.30
2019-02-07T16:11:41.796Z,4.30
2019-02-07T16:14:08.315Z,4.30
2019-02-07T16:16:34.707Z,4.20
2019-02-07T16:19:01.119Z,4.20
2019-02-07T16:21:27.595Z,4.20
2019-02-07T16:23:54.423Z,4.20
2019-02-07T16:26:21.137Z,4.20
2019-02-07T16:28:47.531Z,4.20
2019-02-07T16:31:13.990Z,4.20
2019-02-07T16:33:40.490Z,4.20
2019-02-07T16:36:06.952Z,4.20
2019-02-07T16:38:33.443Z,4.20
2019-02-07T16:40:59.971Z,4.10
2019-02-07T16:43:26.435Z,4.10
2019-02-07T16:45:53.075Z,4.10
2019-02-07T16:48:19.461Z,4.00
2019-02-07T16:50:45.892Z,4.00
2019-02-07T16:53:12.424Z,4.00
2019-02-07T16:55:39.027Z,4.00
2019-02-07T16:58:05.559Z,4.00
2019-02-07T17:00:34.275Z,3.90
2019-02-07T17:03:00.874Z,3.90
2019-02-07T17:05:27.460Z,3.90
2019-02-07T17:07:53.968Z,3.80
2019-02-07T17:10:38.277Z,3.80
2019-02-07T17:13:07.577Z,3.80
2019-02-07T17:15:34.578Z,3.80
2019-02-07T17:18:00.979Z,3.70
2019-02-07T17:20:29.375Z,3.70
2019-02-07T17:22:56.177Z,3.60
2019-02-07T17:25:22.834Z,3.60
2019-02-07T17:27:49.426Z,3.60
2019-02-07T17:30:18.325Z,3.70
2019-02-07T17:32:45.095Z,3.70
2019-02-07T17:35:13.644Z,3.70
2019-02-07T17:37:40.219Z,3.80
2019-02-07T17:40:16.057Z,3.90
2019-02-07T17:42:42.546Z,3.90
2019-02-07T17:45:12.232Z,3.90
2019-02-07T17:47:38.686Z,3.80
2019-02-07T17:50:17.257Z,3.80
2019-02-07T17:52:43.777Z,3.70
2019-02-07T17:55:13.652Z,3.70
2019-02-07T17:57:40.119Z,3.60
2019-02-07T18:00:15.021Z,3.60
2019-02-07T18:02:41.627Z,3.60
2019-02-07T18:05:08.384Z,3.50
2019-02-07T18:07:34.888Z,3.50
2019-02-07T18:10:01.690Z,3.60
2019-02-07T18:12:28.974Z,3.60
2019-02-07T18:14:55.469Z,3.60
2019-02-07T18:17:22.567Z,3.60
2019-02-07T18:19:49.172Z,3.60
2019-02-07T18:22:16.279Z,3.60
2019-02-07T18:24:43.006Z,3.60
2019-02-07T18:27:09.581Z,3.60
2019-02-07T18:29:36.133Z,3.60
2019-02-07T18:32:02.717Z,3.60
2019-02-07T18:34:29.128Z,3.60
2019-02-07T18:36:55.594Z,3.60
2019-02-07T18:39:22.178Z,3.60
2019-02-07T18:41:49.240Z,3.50
2019-02-07T18:44:15.718Z,3.50
2019-02-07T18:46:42.125Z,3.50
2019-02-07T18:49:08.619Z,3.50
2019-02-07T18:51:44.932Z,3.50
2019-02-07T18:54:03.520Z,3.50
2019-02-07T18:56:29.875Z,3.40
2019-02-07T18:58:56.181Z,3.40
2019-02-07T19:01:22.583Z,3.40
2019-02-07T19:03:49.086Z,3.40
2019-02-07T19:06:15.608Z,3.40
2019-02-07T19:08:42.207Z,3.40
2019-02-07T19:11:08.603Z,3.40
2019-02-07T19:13:35.063Z,3.40
2019-02-07T19:16:02.129Z,3.40
2019-02-07T19:18:28.733Z,3.40
2019-02-07T19:20:55.224Z,3.40
2019-02-07T19:23:22.159Z,3.40
2019-02-07T19:25:48.524Z,3.40
2019-02-07T19:28:15.017Z,3.40
2019-02-07T19:30:41.730Z,3.40
2019-02-07T19:33:08.264Z,3.40
2019-02-07T19:35:34.790Z,3.40
2019-02-07T19:38:01.243Z,3.40
2019-02-07T19:40:27.882Z,3.40
2019-02-07T19:42:54.812Z,3.40
2019-02-07T19:45:24.226Z,3.40
2019-02-07T19:47:50.713Z,3.40
2019-02-07T19:50:19.337Z,3.40
2019-02-07T19:52:46.101Z,3.40
2019-02-07T19:55:14.703Z,3.40
2019-02-07T19:57:41.306Z,3.40
2019-02-07T20:00:13.800Z,3.40
2019-02-07T20:02:40.866Z,3.40
2019-02-07T20:05:08.446Z,3.40
2019-02-07T20:07:34.970Z,3.30
2019-02-07T20:10:01.483Z,3.30
2019-02-07T20:12:27.816Z,3.30
2019-02-07T20:14:54.408Z,3.30
2019-02-07T20:17:20.934Z,3.20
2019-02-07T20:19:47.721Z,3.20
2019-02-07T20:22:20.323Z,3.20
2019-02-07T20:27:11.105Z,3.10
2019-02-07T20:29:37.540Z,3.00
2019-02-07T20:32:04.171Z,3.00
2019-02-07T20:34:30.770Z,3.00
2019-02-07T20:36:57.300Z,3.00
2019-02-07T20:39:23.901Z,3.00
2019-02-07T20:41:50.820Z,3.00
2019-02-07T20:44:17.355Z,2.90
2019-02-07T20:46:43.817Z,2.90
2019-02-07T20:49:10.441Z,2.80
2019-02-07T20:51:36.878Z,2.80
2019-02-07T20:54:03.516Z,2.80
2019-02-07T20:56:30.024Z,2.80
2019-02-07T20:58:56.581Z,2.80
2019-02-07T21:01:23.054Z,2.70
2019-02-07T21:03:49.912Z,2.70
2019-02-07T21:06:16.482Z,2.70
2019-02-07T21:08:43.134Z,2.70
2019-02-07T21:11:09.631Z,2.70
2019-02-07T21:13:36.051Z,2.70
2019-02-07T21:16:02.706Z,2.70
2019-02-07T21:18:28.977Z,2.60
2019-02-07T21:20:55.492Z,2.60
2019-02-07T21:23:21.948Z,2.60
2019-02-07T21:25:50.263Z,2.60
2019-02-07T21:28:16.867Z,2.60
2019-02-07T21:30:43.473Z,2.60
2019-02-07T21:33:10.325Z,2.60
2019-02-07T21:35:36.988Z,2.60
2019-02-07T21:38:04.668Z,2.50
2019-02-07T21:40:31.321Z,2.50
2019-02-07T21:42:58.773Z,2.50
2019-02-07T21:45:25.691Z,2.40
2019-02-07T21:47:52.694Z,2.40
2019-02-07T21:50:21.477Z,2.40
2019-02-07T21:52:48.085Z,2.30
2019-02-07T21:55:20.093Z,2.30
2019-02-07T21:57:46.647Z,2.30
2019-02-07T22:00:19.559Z,2.30
2019-02-07T22:02:46.384Z,2.30
2019-02-07T22:05:13.473Z,2.20
2019-02-07T22:07:39.852Z,2.20
2019-02-07T22:10:09.295Z,2.30
2019-02-07T22:12:35.913Z,2.30
2019-02-07T22:15:10.713Z,2.30
2019-02-07T22:17:37.309Z,2.30
2019-02-07T22:20:07.655Z,2.30
2019-02-07T22:22:34.289Z,2.30
2019-02-07T22:25:00.822Z,2.30
2019-02-07T22:27:27.294Z,2.30
2019-02-07T22:29:53.808Z,2.30
2019-02-07T22:32:20.343Z,2.30
2019-02-07T22:34:46.782Z,2.20
2019-02-07T22:37:13.366Z,2.20
2019-02-07T22:39:40.266Z,2.20
2019-02-07T22:42:06.780Z,2.10
2019-02-07T22:44:33.066Z,2.10
2019-02-07T22:46:59.592Z,2.10
2019-02-07T22:49:26.230Z,2.10
2019-02-07T22:51:52.650Z,2.00
2019-02-07T22:54:19.239Z,2.00
2019-02-07T22:56:47.452Z,2.00
2019-02-07T22:59:14.059Z,2.00
2019-02-07T23:01:41.858Z,2.10
2019-02-07T23:04:09.565Z,2.10
2019-02-07T23:06:36.063Z,2.10
2019-02-07T23:09:05.847Z,2.10
2019-02-07T23:11:32.431Z,2.10
2019-02-07T23:13:58.904Z,2.10
2019-02-07T23:16:25.734Z,2.00
2019-02-07T23:18:52.374Z,2.00
2019-02-07T23:21:18.856Z,1.90
2019-02-07T23:23:45.386Z,1.90
2019-02-07T23:26:11.904Z,1.90
2019-02-07T23:28:38.423Z,1.90
2019-02-07T23:31:05.152Z,1.80
2019-02-07T23:33:31.657Z,1.80
2019-02-07T23:35:58.424Z,1.80
2019-02-07T23:38:24.847Z,1.70
2019-02-07T23:40:51.234Z,1.70
2019-02-07T23:43:17.778Z,1.70
2019-02-07T23:45:44.342Z,1.70
2019-02-07T23:48:11.106Z,1.70
2019-02-07T23:50:37.615Z,1.70
2019-02-07T23:53:04.178Z,1.60
2019-02-07T23:55:30.707Z,1.60
2019-02-07T23:57:57.414Z,1.50
